FMCZ

Dzaoudzi Pamandzi International Airport

Dzaoudzi, Mayotte
TAF FMCZ 210500Z 2106/2206 16015KT 9999 SCT030 BECMG 2200/2203 17015G25KT
Issued Valid From Valid To
Jul-21 @ 05:00 UTC
(5 hours ago)
Jul-21 @ 06:00 UTC
(4 hours ago)
Jul-22 @ 06:00 UTC
(in 20 hours)
Jul-21 @ 06:00 to Jul-22 @ 00:00
TAF FMCZ 210500Z 2106/2206 16015KT 9999 SCT030
Wind Visibility Clouds
160° at 15 knots 10,000+ meters
  • Scattered at 3,000' AGL
Becoming Jul-22 @ 00:00 to Jul-22 @ 06:00
BECMG 2200/2203 17015G25KT
Wind Visibility Clouds
170° at 15 knots
 Gusting to 25 knots
10,000+ meters
  • Scattered at 3,000' AGL
TAF FMCZ 210500Z 2106/2206 16015KT 9999 SCT030 BECMG 2200/2203 17015G25KT
Issued Jul-21 @ 05:00 UTC
(5 hours ago)
Valid From Jul-21 @ 06:00 UTC
(4 hours ago)
Valid To Jul-22 @ 06:00 UTC
(in 20 hours)
Jul-21 @ 06:00 - Jul-22 @ 00:00
Wind Visibility
160° at 15 knots 10,000+ meters
Clouds
  • Scattered at 3,000' AGL
Becoming Jul-22 @ 00:00 - Jul-22 @ 06:00
Wind Visibility
170° at 15 knots
 Gusting to 25 knots
10,000+ meters
Clouds
  • Scattered at 3,000' AGL